sensor_id;sensor_type;location;lat;lon;timestamp;P1;durP1;ratioP1;P2;durP2;ratioP2
85131;SDS011;75493;51.772;19.464;2024-01-16T00:01:43;3.67;;;2.13;;
85131;SDS011;75493;51.772;19.464;2024-01-16T00:04:09;4.82;;;2.63;;
85131;SDS011;75493;51.772;19.464;2024-01-16T00:06:42;5.85;;;2.72;;
85131;SDS011;75493;51.772;19.464;2024-01-16T00:09:08;4.82;;;2.22;;
85131;SDS011;75493;51.772;19.464;2024-01-16T00:11:40;4.35;;;1.98;;
85131;SDS011;75493;51.772;19.464;2024-01-16T00:14:06;4.55;;;2.38;;
85131;SDS011;75493;51.772;19.464;2024-01-16T00:16:32;4.10;;;1.92;;
85131;SDS011;75493;51.772;19.464;2024-01-16T00:18:58;3.92;;;2.20;;
85131;SDS011;75493;51.772;19.464;2024-01-16T00:21:24;3.95;;;2.05;;
85131;SDS011;75493;51.772;19.464;2024-01-16T00:23:50;3.38;;;1.52;;
85131;SDS011;75493;51.772;19.464;2024-01-16T00:26:22;4.28;;;1.42;;
85131;SDS011;75493;51.772;19.464;2024-01-16T00:28:48;3.75;;;1.55;;
85131;SDS011;75493;51.772;19.464;2024-01-16T00:31:14;4.28;;;2.15;;
85131;SDS011;75493;51.772;19.464;2024-01-16T00:33:40;5.28;;;1.67;;
85131;SDS011;75493;51.772;19.464;2024-01-16T00:36:06;4.80;;;1.70;;
85131;SDS011;75493;51.772;19.464;2024-01-16T00:38:33;4.97;;;1.90;;
85131;SDS011;75493;51.772;19.464;2024-01-16T00:40:59;3.75;;;2.00;;
85131;SDS011;75493;51.772;19.464;2024-01-16T00:43:25;3.85;;;1.63;;
85131;SDS011;75493;51.772;19.464;2024-01-16T00:45:51;4.47;;;1.52;;
85131;SDS011;75493;51.772;19.464;2024-01-16T00:48:17;4.78;;;1.83;;
85131;SDS011;75493;51.772;19.464;2024-01-16T00:50:45;2.90;;;1.48;;
85131;SDS011;75493;51.772;19.464;2024-01-16T00:53:13;4.43;;;1.95;;
85131;SDS011;75493;51.772;19.464;2024-01-16T00:55:39;2.70;;;1.65;;
85131;SDS011;75493;51.772;19.464;2024-01-16T00:58:05;3.63;;;1.65;;
85131;SDS011;75493;51.772;19.464;2024-01-16T01:00:31;4.18;;;1.85;;
85131;SDS011;75493;51.772;19.464;2024-01-16T01:02:58;2.97;;;1.70;;
85131;SDS011;75493;51.772;19.464;2024-01-16T01:05:24;4.70;;;1.67;;
85131;SDS011;75493;51.772;19.464;2024-01-16T01:07:53;2.25;;;1.10;;
85131;SDS011;75493;51.772;19.464;2024-01-16T01:10:19;1.83;;;1.10;;
85131;SDS011;75493;51.772;19.464;2024-01-16T01:12:45;3.67;;;1.63;;
85131;SDS011;75493;51.772;19.464;2024-01-16T01:15:11;4.03;;;1.80;;
85131;SDS011;75493;51.772;19.464;2024-01-16T01:17:38;4.28;;;1.92;;
85131;SDS011;75493;51.772;19.464;2024-01-16T01:20:05;4.78;;;2.30;;
85131;SDS011;75493;51.772;19.464;2024-01-16T01:22:31;4.88;;;2.40;;
85131;SDS011;75493;51.772;19.464;2024-01-16T01:24:57;5.32;;;2.17;;
85131;SDS011;75493;51.772;19.464;2024-01-16T01:27:23;5.40;;;2.75;;
85131;SDS011;75493;51.772;19.464;2024-01-16T01:29:49;3.85;;;1.90;;
85131;SDS011;75493;51.772;19.464;2024-01-16T01:32:15;5.45;;;2.10;;
85131;SDS011;75493;51.772;19.464;2024-01-16T01:34:41;3.05;;;2.08;;
85131;SDS011;75493;51.772;19.464;2024-01-16T01:37:07;4.15;;;1.92;;
85131;SDS011;75493;51.772;19.464;2024-01-16T01:39:33;3.42;;;2.13;;
85131;SDS011;75493;51.772;19.464;2024-01-16T01:42:00;4.18;;;2.08;;
85131;SDS011;75493;51.772;19.464;2024-01-16T01:44:26;4.95;;;2.33;;
85131;SDS011;75493;51.772;19.464;2024-01-16T01:46:55;4.40;;;2.38;;
85131;SDS011;75493;51.772;19.464;2024-01-16T01:49:21;3.85;;;1.85;;
85131;SDS011;75493;51.772;19.464;2024-01-16T01:51:48;5.10;;;1.92;;
85131;SDS011;75493;51.772;19.464;2024-01-16T01:54:15;6.22;;;2.53;;
85131;SDS011;75493;51.772;19.464;2024-01-16T01:56:44;4.00;;;1.65;;
85131;SDS011;75493;51.772;19.464;2024-01-16T01:59:10;3.65;;;1.45;;
85131;SDS011;75493;51.772;19.464;2024-01-16T02:01:37;6.40;;;2.17;;
85131;SDS011;75493;51.772;19.464;2024-01-16T02:04:03;3.45;;;1.63;;
85131;SDS011;75493;51.772;19.464;2024-01-16T02:06:30;5.18;;;1.92;;
85131;SDS011;75493;51.772;19.464;2024-01-16T02:08:56;3.00;;;1.90;;
85131;SDS011;75493;51.772;19.464;2024-01-16T02:11:22;3.22;;;1.80;;
85131;SDS011;75493;51.772;19.464;2024-01-16T02:13:48;6.75;;;2.53;;
85131;SDS011;75493;51.772;19.464;2024-01-16T02:16:21;7.05;;;2.80;;
85131;SDS011;75493;51.772;19.464;2024-01-16T02:18:47;8.30;;;3.67;;
85131;SDS011;75493;51.772;19.464;2024-01-16T02:21:15;4.88;;;2.13;;
85131;SDS011;75493;51.772;19.464;2024-01-16T02:23:43;4.60;;;2.35;;
85131;SDS011;75493;51.772;19.464;2024-01-16T02:26:09;3.65;;;2.25;;
85131;SDS011;75493;51.772;19.464;2024-01-16T02:28:35;5.28;;;2.42;;
85131;SDS011;75493;51.772;19.464;2024-01-16T02:31:01;4.28;;;2.08;;
85131;SDS011;75493;51.772;19.464;2024-01-16T02:33:27;4.28;;;2.50;;
85131;SDS011;75493;51.772;19.464;2024-01-16T02:35:53;3.15;;;2.00;;
85131;SDS011;75493;51.772;19.464;2024-01-16T02:38:19;4.57;;;2.47;;
85131;SDS011;75493;51.772;19.464;2024-01-16T02:40:45;4.60;;;2.45;;
85131;SDS011;75493;51.772;19.464;2024-01-16T02:43:11;5.00;;;2.40;;
85131;SDS011;75493;51.772;19.464;2024-01-16T02:45:37;5.30;;;2.50;;
85131;SDS011;75493;51.772;19.464;2024-01-16T02:48:03;4.10;;;2.00;;
85131;SDS011;75493;51.772;19.464;2024-01-16T02:50:29;3.15;;;1.70;;
85131;SDS011;75493;51.772;19.464;2024-01-16T02:52:55;6.53;;;2.35;;
85131;SDS011;75493;51.772;19.464;2024-01-16T02:55:21;4.50;;;1.98;;
85131;SDS011;75493;51.772;19.464;2024-01-16T02:57:47;3.50;;;1.70;;
85131;SDS011;75493;51.772;19.464;2024-01-16T03:00:13;5.43;;;1.70;;
85131;SDS011;75493;51.772;19.464;2024-01-16T03:02:39;4.78;;;1.92;;
85131;SDS011;75493;51.772;19.464;2024-01-16T03:05:05;3.47;;;1.38;;
85131;SDS011;75493;51.772;19.464;2024-01-16T03:07:32;3.53;;;1.60;;
85131;SDS011;75493;51.772;19.464;2024-01-16T03:09:58;2.83;;;1.55;;
85131;SDS011;75493;51.772;19.464;2024-01-16T03:12:24;2.70;;;1.45;;
85131;SDS011;75493;51.772;19.464;2024-01-16T03:14:50;5.45;;;2.25;;
85131;SDS011;75493;51.772;19.464;2024-01-16T03:17:18;4.88;;;1.92;;
85131;SDS011;75493;51.772;19.464;2024-01-16T03:19:44;3.28;;;1.67;;
85131;SDS011;75493;51.772;19.464;2024-01-16T03:22:10;2.90;;;2.25;;
85131;SDS011;75493;51.772;19.464;2024-01-16T03:24:36;3.65;;;1.65;;
85131;SDS011;75493;51.772;19.464;2024-01-16T03:27:02;4.85;;;1.65;;
85131;SDS011;75493;51.772;19.464;2024-01-16T03:29:29;5.68;;;1.77;;
85131;SDS011;75493;51.772;19.464;2024-01-16T03:31:55;2.88;;;1.58;;
85131;SDS011;75493;51.772;19.464;2024-01-16T03:34:21;4.22;;;2.00;;
85131;SDS011;75493;51.772;19.464;2024-01-16T03:36:47;3.92;;;1.70;;
85131;SDS011;75493;51.772;19.464;2024-01-16T03:39:13;2.90;;;1.45;;
85131;SDS011;75493;51.772;19.464;2024-01-16T03:41:39;1.90;;;1.58;;
85131;SDS011;75493;51.772;19.464;2024-01-16T03:44:05;2.38;;;1.52;;
85131;SDS011;75493;51.772;19.464;2024-01-16T03:46:31;3.88;;;1.60;;
85131;SDS011;75493;51.772;19.464;2024-01-16T03:48:57;3.17;;;1.42;;
85131;SDS011;75493;51.772;19.464;2024-01-16T03:51:23;2.58;;;1.52;;
85131;SDS011;75493;51.772;19.464;2024-01-16T03:53:49;3.00;;;1.40;;
85131;SDS011;75493;51.772;19.464;2024-01-16T03:56:15;2.08;;;1.08;;
85131;SDS011;75493;51.772;19.464;2024-01-16T03:58:41;6.03;;;1.63;;
85131;SDS011;75493;51.772;19.464;2024-01-16T04:01:08;2.65;;;1.50;;
85131;SDS011;75493;51.772;19.464;2024-01-16T04:03:34;2.78;;;1.20;;
85131;SDS011;75493;51.772;19.464;2024-01-16T04:06:00;2.17;;;1.13;;
85131;SDS011;75493;51.772;19.464;2024-01-16T04:08:26;2.13;;;1.13;;
85131;SDS011;75493;51.772;19.464;2024-01-16T04:10:52;3.53;;;1.23;;
85131;SDS011;75493;51.772;19.464;2024-01-16T04:13:18;5.63;;;2.15;;
85131;SDS011;75493;51.772;19.464;2024-01-16T04:15:44;7.47;;;3.88;;
85131;SDS011;75493;51.772;19.464;2024-01-16T04:18:10;5.72;;;2.17;;
85131;SDS011;75493;51.772;19.464;2024-01-16T04:20:36;25.92;;;13.85;;
85131;SDS011;75493;51.772;19.464;2024-01-16T04:23:02;9.73;;;6.93;;
85131;SDS011;75493;51.772;19.464;2024-01-16T04:25:28;6.15;;;2.60;;
85131;SDS011;75493;51.772;19.464;2024-01-16T04:27:54;2.88;;;1.73;;
85131;SDS011;75493;51.772;19.464;2024-01-16T04:30:20;4.28;;;1.98;;
85131;SDS011;75493;51.772;19.464;2024-01-16T04:32:46;3.42;;;1.38;;
85131;SDS011;75493;51.772;19.464;2024-01-16T04:35:13;3.08;;;1.13;;
85131;SDS011;75493;51.772;19.464;2024-01-16T04:37:39;3.75;;;1.40;;
85131;SDS011;75493;51.772;19.464;2024-01-16T04:40:06;3.20;;;1.98;;
85131;SDS011;75493;51.772;19.464;2024-01-16T04:42:32;79.53;;;31.50;;
85131;SDS011;75493;51.772;19.464;2024-01-16T04:44:59;91.70;;;37.75;;
85131;SDS011;75493;51.772;19.464;2024-01-16T04:47:25;64.18;;;34.55;;
85131;SDS011;75493;51.772;19.464;2024-01-16T04:49:51;24.50;;;17.08;;
85131;SDS011;75493;51.772;19.464;2024-01-16T04:52:16;10.15;;;5.25;;
85131;SDS011;75493;51.772;19.464;2024-01-16T04:54:42;5.85;;;2.58;;
85131;SDS011;75493;51.772;19.464;2024-01-16T04:57:10;4.50;;;2.33;;
85131;SDS011;75493;51.772;19.464;2024-01-16T04:59:36;2.95;;;1.70;;
85131;SDS011;75493;51.772;19.464;2024-01-16T05:02:02;3.08;;;1.50;;
85131;SDS011;75493;51.772;19.464;2024-01-16T05:04:28;2.30;;;1.33;;
85131;SDS011;75493;51.772;19.464;2024-01-16T05:06:55;3.38;;;2.20;;
85131;SDS011;75493;51.772;19.464;2024-01-16T05:09:21;13.73;;;9.13;;
85131;SDS011;75493;51.772;19.464;2024-01-16T05:11:47;36.90;;;29.50;;
85131;SDS011;75493;51.772;19.464;2024-01-16T05:14:13;14.10;;;11.07;;
85131;SDS011;75493;51.772;19.464;2024-01-16T05:16:39;5.60;;;4.65;;
85131;SDS011;75493;51.772;19.464;2024-01-16T05:19:05;2.92;;;2.35;;
85131;SDS011;75493;51.772;19.464;2024-01-16T05:21:31;2.63;;;1.73;;
85131;SDS011;75493;51.772;19.464;2024-01-16T05:23:57;3.97;;;1.50;;
85131;SDS011;75493;51.772;19.464;2024-01-16T05:26:23;4.88;;;1.98;;
85131;SDS011;75493;51.772;19.464;2024-01-16T05:28:49;5.38;;;1.75;;
85131;SDS011;75493;51.772;19.464;2024-01-16T05:31:15;7.28;;;3.50;;
85131;SDS011;75493;51.772;19.464;2024-01-16T05:33:41;20.73;;;10.70;;
85131;SDS011;75493;51.772;19.464;2024-01-16T05:36:08;45.53;;;29.70;;
85131;SDS011;75493;51.772;19.464;2024-01-16T05:38:34;28.80;;;21.17;;
85131;SDS011;75493;51.772;19.464;2024-01-16T05:41:00;10.90;;;7.88;;
85131;SDS011;75493;51.772;19.464;2024-01-16T05:43:26;3.90;;;2.75;;
85131;SDS011;75493;51.772;19.464;2024-01-16T05:45:53;3.03;;;1.52;;
85131;SDS011;75493;51.772;19.464;2024-01-16T05:48:19;3.63;;;1.70;;
85131;SDS011;75493;51.772;19.464;2024-01-16T05:50:45;2.78;;;1.65;;
85131;SDS011;75493;51.772;19.464;2024-01-16T05:53:11;3.38;;;1.45;;
85131;SDS011;75493;51.772;19.464;2024-01-16T05:55:37;6.88;;;2.15;;
85131;SDS011;75493;51.772;19.464;2024-01-16T05:58:03;3.35;;;1.88;;
85131;SDS011;75493;51.772;19.464;2024-01-16T06:00:29;3.92;;;1.50;;
85131;SDS011;75493;51.772;19.464;2024-01-16T06:02:55;3.92;;;1.77;;
85131;SDS011;75493;51.772;19.464;2024-01-16T06:05:21;4.40;;;2.10;;
85131;SDS011;75493;51.772;19.464;2024-01-16T06:07:47;4.50;;;1.90;;
85131;SDS011;75493;51.772;19.464;2024-01-16T06:10:13;2.92;;;2.10;;
85131;SDS011;75493;51.772;19.464;2024-01-16T06:12:39;4.50;;;1.90;;
85131;SDS011;75493;51.772;19.464;2024-01-16T06:15:06;2.53;;;2.03;;
85131;SDS011;75493;51.772;19.464;2024-01-16T06:17:32;5.07;;;2.10;;
85131;SDS011;75493;51.772;19.464;2024-01-16T06:19:58;5.45;;;2.58;;
85131;SDS011;75493;51.772;19.464;2024-01-16T06:22:24;6.20;;;3.03;;
85131;SDS011;75493;51.772;19.464;2024-01-16T06:24:49;3.92;;;2.40;;
85131;SDS011;75493;51.772;19.464;2024-01-16T06:27:16;5.78;;;2.42;;
85131;SDS011;75493;51.772;19.464;2024-01-16T06:29:47;4.10;;;2.67;;
85131;SDS011;75493;51.772;19.464;2024-01-16T06:32:13;9.77;;;3.25;;
85131;SDS011;75493;51.772;19.464;2024-01-16T06:34:39;8.25;;;3.47;;
85131;SDS011;75493;51.772;19.464;2024-01-16T06:37:06;8.75;;;4.38;;
85131;SDS011;75493;51.772;19.464;2024-01-16T06:39:33;7.80;;;3.85;;
85131;SDS011;75493;51.772;19.464;2024-01-16T06:41:59;9.57;;;3.80;;
85131;SDS011;75493;51.772;19.464;2024-01-16T06:44:25;4.68;;;3.03;;
85131;SDS011;75493;51.772;19.464;2024-01-16T06:46:51;5.13;;;2.65;;
85131;SDS011;75493;51.772;19.464;2024-01-16T06:49:17;5.18;;;2.83;;
85131;SDS011;75493;51.772;19.464;2024-01-16T06:51:43;5.00;;;2.75;;
85131;SDS011;75493;51.772;19.464;2024-01-16T06:54:09;6.15;;;3.00;;
85131;SDS011;75493;51.772;19.464;2024-01-16T06:56:35;5.03;;;2.85;;
85131;SDS011;75493;51.772;19.464;2024-01-16T06:59:01;7.20;;;3.10;;
85131;SDS011;75493;51.772;19.464;2024-01-16T07:01:27;5.75;;;2.92;;
85131;SDS011;75493;51.772;19.464;2024-01-16T07:03:53;5.20;;;2.90;;
85131;SDS011;75493;51.772;19.464;2024-01-16T07:06:19;5.10;;;2.92;;
85131;SDS011;75493;51.772;19.464;2024-01-16T07:08:45;6.85;;;3.10;;
85131;SDS011;75493;51.772;19.464;2024-01-16T07:11:11;5.80;;;2.80;;
85131;SDS011;75493;51.772;19.464;2024-01-16T07:13:39;5.13;;;3.08;;
85131;SDS011;75493;51.772;19.464;2024-01-16T07:16:05;5.90;;;3.30;;
85131;SDS011;75493;51.772;19.464;2024-01-16T07:18:31;6.20;;;3.40;;
85131;SDS011;75493;51.772;19.464;2024-01-16T07:20:57;8.18;;;3.95;;
85131;SDS011;75493;51.772;19.464;2024-01-16T07:23:23;5.30;;;3.58;;
85131;SDS011;75493;51.772;19.464;2024-01-16T07:25:48;4.65;;;3.40;;
85131;SDS011;75493;51.772;19.464;2024-01-16T07:28:14;5.57;;;3.53;;
85131;SDS011;75493;51.772;19.464;2024-01-16T07:30:43;10.73;;;4.25;;
85131;SDS011;75493;51.772;19.464;2024-01-16T07:33:09;6.95;;;3.22;;
85131;SDS011;75493;51.772;19.464;2024-01-16T07:35:36;8.43;;;4.00;;
85131;SDS011;75493;51.772;19.464;2024-01-16T07:38:06;6.63;;;3.75;;
85131;SDS011;75493;51.772;19.464;2024-01-16T07:40:31;7.03;;;3.55;;
85131;SDS011;75493;51.772;19.464;2024-01-16T07:42:57;8.70;;;4.15;;
85131;SDS011;75493;51.772;19.464;2024-01-16T07:45:24;4.85;;;3.13;;
85131;SDS011;75493;51.772;19.464;2024-01-16T07:47:50;8.82;;;4.32;;
85131;SDS011;75493;51.772;19.464;2024-01-16T07:50:16;6.90;;;4.35;;
85131;SDS011;75493;51.772;19.464;2024-01-16T07:52:42;6.40;;;3.95;;
85131;SDS011;75493;51.772;19.464;2024-01-16T07:55:08;7.28;;;4.20;;
85131;SDS011;75493;51.772;19.464;2024-01-16T07:57:34;7.63;;;4.15;;
85131;SDS011;75493;51.772;19.464;2024-01-16T08:00:00;6.82;;;4.22;;
85131;SDS011;75493;51.772;19.464;2024-01-16T08:02:32;7.43;;;3.03;;
85131;SDS011;75493;51.772;19.464;2024-01-16T08:05:02;6.28;;;3.30;;
85131;SDS011;75493;51.772;19.464;2024-01-16T08:07:28;8.23;;;3.63;;
85131;SDS011;75493;51.772;19.464;2024-01-16T08:09:54;6.70;;;3.40;;
85131;SDS011;75493;51.772;19.464;2024-01-16T08:12:20;5.68;;;3.33;;
85131;SDS011;75493;51.772;19.464;2024-01-16T08:14:46;10.32;;;3.30;;
85131;SDS011;75493;51.772;19.464;2024-01-16T08:17:11;7.60;;;3.95;;
85131;SDS011;75493;51.772;19.464;2024-01-16T08:19:37;7.18;;;3.88;;
85131;SDS011;75493;51.772;19.464;2024-01-16T08:22:03;7.53;;;3.70;;
85131;SDS011;75493;51.772;19.464;2024-01-16T08:24:29;8.52;;;4.70;;
85131;SDS011;75493;51.772;19.464;2024-01-16T08:26:55;11.30;;;5.65;;
85131;SDS011;75493;51.772;19.464;2024-01-16T08:29:24;20.85;;;9.38;;
85131;SDS011;75493;51.772;19.464;2024-01-16T08:31:50;14.43;;;5.70;;
85131;SDS011;75493;51.772;19.464;2024-01-16T08:34:17;7.93;;;4.28;;
85131;SDS011;75493;51.772;19.464;2024-01-16T08:36:43;7.70;;;4.22;;
85131;SDS011;75493;51.772;19.464;2024-01-16T08:39:09;8.10;;;3.70;;
85131;SDS011;75493;51.772;19.464;2024-01-16T08:41:35;10.90;;;4.80;;
85131;SDS011;75493;51.772;19.464;2024-01-16T08:44:01;8.13;;;4.40;;
85131;SDS011;75493;51.772;19.464;2024-01-16T08:46:27;9.05;;;3.95;;
85131;SDS011;75493;51.772;19.464;2024-01-16T08:48:53;9.52;;;4.30;;
85131;SDS011;75493;51.772;19.464;2024-01-16T08:51:19;8.95;;;4.10;;
85131;SDS011;75493;51.772;19.464;2024-01-16T08:53:45;8.38;;;4.45;;
85131;SDS011;75493;51.772;19.464;2024-01-16T08:56:11;11.45;;;4.57;;
85131;SDS011;75493;51.772;19.464;2024-01-16T08:58:38;5.65;;;2.78;;
85131;SDS011;75493;51.772;19.464;2024-01-16T09:01:05;6.03;;;2.72;;
85131;SDS011;75493;51.772;19.464;2024-01-16T09:03:34;5.13;;;3.35;;
85131;SDS011;75493;51.772;19.464;2024-01-16T09:06:01;6.07;;;3.10;;
85131;SDS011;75493;51.772;19.464;2024-01-16T09:08:27;6.93;;;3.08;;
85131;SDS011;75493;51.772;19.464;2024-01-16T09:10:54;8.20;;;4.13;;
85131;SDS011;75493;51.772;19.464;2024-01-16T09:13:20;7.28;;;3.13;;
85131;SDS011;75493;51.772;19.464;2024-01-16T09:15:47;7.32;;;3.97;;
85131;SDS011;75493;51.772;19.464;2024-01-16T09:18:14;7.22;;;4.25;;
85131;SDS011;75493;51.772;19.464;2024-01-16T09:20:40;7.00;;;4.72;;
85131;SDS011;75493;51.772;19.464;2024-01-16T09:23:06;8.02;;;3.65;;
85131;SDS011;75493;51.772;19.464;2024-01-16T09:25:33;6.32;;;3.38;;
85131;SDS011;75493;51.772;19.464;2024-01-16T09:27:59;6.78;;;4.03;;
85131;SDS011;75493;51.772;19.464;2024-01-16T09:30:25;8.10;;;3.90;;
85131;SDS011;75493;51.772;19.464;2024-01-16T09:32:51;5.57;;;3.83;;
85131;SDS011;75493;51.772;19.464;2024-01-16T09:35:17;9.85;;;4.25;;
85131;SDS011;75493;51.772;19.464;2024-01-16T09:37:43;6.93;;;3.42;;
85131;SDS011;75493;51.772;19.464;2024-01-16T09:40:10;6.28;;;2.95;;
85131;SDS011;75493;51.772;19.464;2024-01-16T09:42:36;5.28;;;2.45;;
85131;SDS011;75493;51.772;19.464;2024-01-16T09:45:02;4.60;;;2.40;;
85131;SDS011;75493;51.772;19.464;2024-01-16T09:47:31;3.63;;;2.60;;
85131;SDS011;75493;51.772;19.464;2024-01-16T09:49:57;5.60;;;2.83;;
85131;SDS011;75493;51.772;19.464;2024-01-16T09:52:26;8.02;;;4.05;;
85131;SDS011;75493;51.772;19.464;2024-01-16T09:54:52;5.60;;;2.22;;
85131;SDS011;75493;51.772;19.464;2024-01-16T09:57:18;3.55;;;1.70;;
85131;SDS011;75493;51.772;19.464;2024-01-16T09:59:48;4.57;;;2.03;;
85131;SDS011;75493;51.772;19.464;2024-01-16T10:02:14;3.08;;;2.33;;
85131;SDS011;75493;51.772;19.464;2024-01-16T10:04:41;5.65;;;2.10;;
85131;SDS011;75493;51.772;19.464;2024-01-16T10:07:07;3.33;;;2.08;;
85131;SDS011;75493;51.772;19.464;2024-01-16T10:09:35;3.95;;;1.90;;
85131;SDS011;75493;51.772;19.464;2024-01-16T10:12:01;3.90;;;2.05;;
85131;SDS011;75493;51.772;19.464;2024-01-16T10:14:28;3.83;;;2.35;;
85131;SDS011;75493;51.772;19.464;2024-01-16T10:17:01;5.78;;;2.80;;
85131;SDS011;75493;51.772;19.464;2024-01-16T10:19:50;5.47;;;2.65;;
85131;SDS011;75493;51.772;19.464;2024-01-16T10:22:20;6.20;;;2.92;;
85131;SDS011;75493;51.772;19.464;2024-01-16T10:24:47;5.18;;;3.03;;
85131;SDS011;75493;51.772;19.464;2024-01-16T10:27:15;8.93;;;4.03;;
85131;SDS011;75493;51.772;19.464;2024-01-16T10:29:55;4.97;;;3.22;;
85131;SDS011;75493;51.772;19.464;2024-01-16T10:32:27;5.40;;;2.80;;
85131;SDS011;75493;51.772;19.464;2024-01-16T10:37:30;8.70;;;3.38;;
85131;SDS011;75493;51.772;19.464;2024-01-16T10:39:57;6.40;;;3.47;;
85131;SDS011;75493;51.772;19.464;2024-01-16T10:42:23;7.93;;;2.85;;
85131;SDS011;75493;51.772;19.464;2024-01-16T10:44:52;6.43;;;3.25;;
85131;SDS011;75493;51.772;19.464;2024-01-16T10:47:20;5.32;;;2.83;;
85131;SDS011;75493;51.772;19.464;2024-01-16T10:49:47;10.65;;;3.15;;
85131;SDS011;75493;51.772;19.464;2024-01-16T10:52:13;5.57;;;2.60;;
85131;SDS011;75493;51.772;19.464;2024-01-16T10:54:41;4.95;;;2.53;;
85131;SDS011;75493;51.772;19.464;2024-01-16T10:57:09;6.10;;;2.92;;
85131;SDS011;75493;51.772;19.464;2024-01-16T10:59:39;9.00;;;2.83;;
85131;SDS011;75493;51.772;19.464;2024-01-16T11:02:06;6.25;;;2.78;;
85131;SDS011;75493;51.772;19.464;2024-01-16T11:04:35;7.07;;;3.03;;
85131;SDS011;75493;51.772;19.464;2024-01-16T11:07:02;6.25;;;3.60;;
85131;SDS011;75493;51.772;19.464;2024-01-16T11:09:29;7.50;;;4.10;;
85131;SDS011;75493;51.772;19.464;2024-01-16T11:11:55;7.13;;;4.22;;
85131;SDS011;75493;51.772;19.464;2024-01-16T11:14:23;6.45;;;2.92;;
85131;SDS011;75493;51.772;19.464;2024-01-16T11:16:51;4.90;;;2.67;;
85131;SDS011;75493;51.772;19.464;2024-01-16T11:19:17;7.63;;;2.83;;
85131;SDS011;75493;51.772;19.464;2024-01-16T11:21:43;4.93;;;2.67;;
85131;SDS011;75493;51.772;19.464;2024-01-16T11:24:10;6.72;;;2.67;;
85131;SDS011;75493;51.772;19.464;2024-01-16T11:26:37;6.72;;;3.67;;
85131;SDS011;75493;51.772;19.464;2024-01-16T11:29:38;6.25;;;3.50;;
85131;SDS011;75493;51.772;19.464;2024-01-16T11:31:57;7.63;;;3.88;;
85131;SDS011;75493;51.772;19.464;2024-01-16T11:37:13;8.30;;;3.60;;
85131;SDS011;75493;51.772;19.464;2024-01-16T11:39:39;6.97;;;4.10;;
85131;SDS011;75493;51.772;19.464;2024-01-16T11:42:08;8.05;;;3.40;;
85131;SDS011;75493;51.772;19.464;2024-01-16T11:47:03;7.68;;;3.88;;
85131;SDS011;75493;51.772;19.464;2024-01-16T11:49:29;17.30;;;7.50;;
85131;SDS011;75493;51.772;19.464;2024-01-16T11:51:56;19.95;;;7.35;;
85131;SDS011;75493;51.772;19.464;2024-01-16T11:54:22;23.63;;;7.93;;
85131;SDS011;75493;51.772;19.464;2024-01-16T11:57:06;11.65;;;5.95;;
85131;SDS011;75493;51.772;19.464;2024-01-16T12:02:09;14.00;;;5.47;;
85131;SDS011;75493;51.772;19.464;2024-01-16T12:04:36;14.65;;;7.38;;
85131;SDS011;75493;51.772;19.464;2024-01-16T12:07:02;18.05;;;6.90;;
85131;SDS011;75493;51.772;19.464;2024-01-16T12:09:28;14.63;;;6.28;;
85131;SDS011;75493;51.772;19.464;2024-01-16T12:11:58;15.48;;;7.97;;
85131;SDS011;75493;51.772;19.464;2024-01-16T12:16:52;24.38;;;10.35;;
85131;SDS011;75493;51.772;19.464;2024-01-16T12:19:18;16.67;;;8.55;;
85131;SDS011;75493;51.772;19.464;2024-01-16T12:21:44;23.50;;;9.10;;
85131;SDS011;75493;51.772;19.464;2024-01-16T12:24:11;22.90;;;12.05;;
85131;SDS011;75493;51.772;19.464;2024-01-16T12:26:37;19.75;;;11.02;;
85131;SDS011;75493;51.772;19.464;2024-01-16T12:29:04;17.55;;;9.60;;
85131;SDS011;75493;51.772;19.464;2024-01-16T12:31:31;24.35;;;15.32;;
85131;SDS011;75493;51.772;19.464;2024-01-16T12:34:09;24.63;;;10.23;;
85131;SDS011;75493;51.772;19.464;2024-01-16T12:36:35;20.08;;;9.20;;
85131;SDS011;75493;51.772;19.464;2024-01-16T12:39:01;17.00;;;7.72;;
85131;SDS011;75493;51.772;19.464;2024-01-16T12:41:34;12.25;;;6.95;;
85131;SDS011;75493;51.772;19.464;2024-01-16T12:44:02;14.18;;;6.90;;
85131;SDS011;75493;51.772;19.464;2024-01-16T12:46:28;16.55;;;8.98;;
85131;SDS011;75493;51.772;19.464;2024-01-16T12:48:59;17.65;;;10.43;;
85131;SDS011;75493;51.772;19.464;2024-01-16T12:51:25;15.32;;;9.40;;
85131;SDS011;75493;51.772;19.464;2024-01-16T12:53:51;16.15;;;9.70;;
85131;SDS011;75493;51.772;19.464;2024-01-16T12:56:18;17.17;;;9.10;;
85131;SDS011;75493;51.772;19.464;2024-01-16T12:58:46;16.02;;;8.25;;
85131;SDS011;75493;51.772;19.464;2024-01-16T13:01:25;14.15;;;7.65;;
85131;SDS011;75493;51.772;19.464;2024-01-16T13:03:52;12.23;;;6.45;;
85131;SDS011;75493;51.772;19.464;2024-01-16T13:06:19;11.15;;;7.03;;
85131;SDS011;75493;51.772;19.464;2024-01-16T13:08:46;10.52;;;5.60;;
85131;SDS011;75493;51.772;19.464;2024-01-16T13:11:12;10.85;;;5.45;;
85131;SDS011;75493;51.772;19.464;2024-01-16T13:13:41;12.55;;;5.70;;
85131;SDS011;75493;51.772;19.464;2024-01-16T13:16:07;11.68;;;6.45;;
85131;SDS011;75493;51.772;19.464;2024-01-16T13:18:34;12.38;;;6.45;;
85131;SDS011;75493;51.772;19.464;2024-01-16T13:21:00;13.20;;;8.13;;
85131;SDS011;75493;51.772;19.464;2024-01-16T13:23:27;11.18;;;5.85;;
85131;SDS011;75493;51.772;19.464;2024-01-16T13:25:55;10.00;;;5.30;;
85131;SDS011;75493;51.772;19.464;2024-01-16T13:28:22;11.50;;;5.28;;
85131;SDS011;75493;51.772;19.464;2024-01-16T13:30:49;10.98;;;6.22;;
85131;SDS011;75493;51.772;19.464;2024-01-16T13:33:15;13.90;;;7.45;;
85131;SDS011;75493;51.772;19.464;2024-01-16T13:35:42;13.80;;;8.10;;
85131;SDS011;75493;51.772;19.464;2024-01-16T13:38:08;11.52;;;7.18;;
85131;SDS011;75493;51.772;19.464;2024-01-16T13:40:35;12.23;;;7.35;;
85131;SDS011;75493;51.772;19.464;2024-01-16T13:43:04;11.32;;;7.03;;
85131;SDS011;75493;51.772;19.464;2024-01-16T13:45:33;14.40;;;6.90;;
85131;SDS011;75493;51.772;19.464;2024-01-16T13:48:03;11.52;;;8.20;;
85131;SDS011;75493;51.772;19.464;2024-01-16T13:50:30;10.93;;;7.00;;
85131;SDS011;75493;51.772;19.464;2024-01-16T13:52:56;10.73;;;6.75;;
85131;SDS011;75493;51.772;19.464;2024-01-16T13:55:22;8.45;;;5.78;;
85131;SDS011;75493;51.772;19.464;2024-01-16T13:57:48;12.82;;;7.32;;
85131;SDS011;75493;51.772;19.464;2024-01-16T14:00:14;8.52;;;6.25;;
85131;SDS011;75493;51.772;19.464;2024-01-16T14:02:41;12.63;;;6.95;;
85131;SDS011;75493;51.772;19.464;2024-01-16T14:05:08;13.38;;;7.78;;
85131;SDS011;75493;51.772;19.464;2024-01-16T14:07:39;11.35;;;6.60;;
85131;SDS011;75493;51.772;19.464;2024-01-16T14:10:07;10.73;;;7.45;;
85131;SDS011;75493;51.772;19.464;2024-01-16T14:12:34;13.70;;;7.10;;
85131;SDS011;75493;51.772;19.464;2024-01-16T14:15:01;11.30;;;7.65;;
85131;SDS011;75493;51.772;19.464;2024-01-16T14:17:29;12.32;;;6.78;;
85131;SDS011;75493;51.772;19.464;2024-01-16T14:19:55;11.07;;;6.90;;
85131;SDS011;75493;51.772;19.464;2024-01-16T14:22:22;13.48;;;7.63;;
85131;SDS011;75493;51.772;19.464;2024-01-16T14:24:48;11.43;;;7.25;;
85131;SDS011;75493;51.772;19.464;2024-01-16T14:27:16;11.98;;;6.78;;
85131;SDS011;75493;51.772;19.464;2024-01-16T14:29:42;12.18;;;6.68;;
85131;SDS011;75493;51.772;19.464;2024-01-16T14:32:08;14.07;;;8.25;;
85131;SDS011;75493;51.772;19.464;2024-01-16T14:34:34;15.52;;;9.10;;
85131;SDS011;75493;51.772;19.464;2024-01-16T14:37:00;12.50;;;6.70;;
85131;SDS011;75493;51.772;19.464;2024-01-16T14:39:26;12.32;;;6.30;;
85131;SDS011;75493;51.772;19.464;2024-01-16T14:41:55;13.95;;;6.68;;